sensor_id;sensor_type;location;lat;lon;timestamp;pressure;altitude;pressure_sealevel;temperature;humidity
10587;BME280;5341;47.606;7.576;2022-08-23T00:00:05;98602.63;;;25.80;44.12
10587;BME280;5341;47.606;7.576;2022-08-23T00:02:34;98607.56;;;25.78;44.29
10587;BME280;5341;47.606;7.576;2022-08-23T00:05:04;98609.50;;;25.78;44.33
10587;BME280;5341;47.606;7.576;2022-08-23T00:07:32;98604.31;;;25.76;44.29
10587;BME280;5341;47.606;7.576;2022-08-23T00:09:59;98606.50;;;25.74;44.38
10587;BME280;5341;47.606;7.576;2022-08-23T00:12:27;98608.44;;;25.74;44.17
10587;BME280;5341;47.606;7.576;2022-08-23T00:14:55;98609.00;;;25.70;44.22
10587;BME280;5341;47.606;7.576;2022-08-23T00:17:23;98604.06;;;25.67;44.31
10587;BME280;5341;47.606;7.576;2022-08-23T00:19:50;98611.75;;;25.65;44.53
10587;BME280;5341;47.606;7.576;2022-08-23T00:22:20;98606.84;;;25.62;44.70
10587;BME280;5341;47.606;7.576;2022-08-23T00:24:47;98601.66;;;25.61;44.63
10587;BME280;5341;47.606;7.576;2022-08-23T00:27:16;98604.69;;;25.59;44.71
10587;BME280;5341;47.606;7.576;2022-08-23T00:29:47;98606.59;;;25.59;44.60
10587;BME280;5341;47.606;7.576;2022-08-23T00:32:17;98598.66;;;25.57;44.83
10587;BME280;5341;47.606;7.576;2022-08-23T00:34:45;98605.78;;;25.58;44.87
10587;BME280;5341;47.606;7.576;2022-08-23T00:37:13;98596.19;;;25.56;44.85
10587;BME280;5341;47.606;7.576;2022-08-23T00:39:44;98603.59;;;25.55;44.79
10587;BME280;5341;47.606;7.576;2022-08-23T00:42:15;98597.28;;;25.55;44.97
10587;BME280;5341;47.606;7.576;2022-08-23T00:45:09;98595.13;;;25.52;44.71
10587;BME280;5341;47.606;7.576;2022-08-23T00:47:57;98599.78;;;25.51;44.71
10587;BME280;5341;47.606;7.576;2022-08-23T00:50:28;98589.41;;;25.48;44.76
10587;BME280;5341;47.606;7.576;2022-08-23T00:53:02;98599.81;;;25.46;44.76
10587;BME280;5341;47.606;7.576;2022-08-23T00:55:34;98594.63;;;25.45;44.87
10587;BME280;5341;47.606;7.576;2022-08-23T00:58:02;98597.63;;;25.43;44.87
10587;BME280;5341;47.606;7.576;2022-08-23T01:00:30;98590.81;;;25.40;44.85
10587;BME280;5341;47.606;7.576;2022-08-23T01:02:59;98601.75;;;25.40;44.57
10587;BME280;5341;47.606;7.576;2022-08-23T01:05:32;98600.41;;;25.38;44.75
10587;BME280;5341;47.606;7.576;2022-08-23T01:08:03;98598.25;;;25.35;44.83
10587;BME280;5341;47.606;7.576;2022-08-23T01:10:36;98599.63;;;25.32;44.86
10587;BME280;5341;47.606;7.576;2022-08-23T01:13:09;98598.25;;;25.30;44.98
10587;BME280;5341;47.606;7.576;2022-08-23T01:15:41;98591.16;;;25.29;45.02
10587;BME280;5341;47.606;7.576;2022-08-23T01:18:13;98593.34;;;25.27;44.93
10587;BME280;5341;47.606;7.576;2022-08-23T01:20:48;98592.81;;;25.25;44.92
10587;BME280;5341;47.606;7.576;2022-08-23T01:26:18;98594.75;;;25.19;45.02
10587;BME280;5341;47.606;7.576;2022-08-23T01:28:46;98601.63;;;25.17;45.06
10587;BME280;5341;47.606;7.576;2022-08-23T01:31:14;98612.84;;;25.15;45.11
10587;BME280;5341;47.606;7.576;2022-08-23T01:33:45;98618.59;;;25.13;45.12
10587;BME280;5341;47.606;7.576;2022-08-23T01:36:16;98618.34;;;25.10;45.19
10587;BME280;5341;47.606;7.576;2022-08-23T01:38:47;98617.81;;;25.08;45.22
10587;BME280;5341;47.606;7.576;2022-08-23T01:41:16;98616.44;;;25.05;45.32
10587;BME280;5341;47.606;7.576;2022-08-23T01:43:44;98617.81;;;25.03;45.33
10587;BME280;5341;47.606;7.576;2022-08-23T01:46:15;98617.28;;;25.01;45.19
10587;BME280;5341;47.606;7.576;2022-08-23T01:48:43;98610.44;;;24.98;45.06
10587;BME280;5341;47.606;7.576;2022-08-23T01:51:12;98611.81;;;24.96;45.22
10587;BME280;5341;47.606;7.576;2022-08-23T01:53:41;98610.44;;;24.93;45.21
10587;BME280;5341;47.606;7.576;2022-08-23T01:56:09;98607.16;;;24.91;45.29
10587;BME280;5341;47.606;7.576;2022-08-23T01:58:40;98611.28;;;24.89;45.14
10587;BME280;5341;47.606;7.576;2022-08-23T02:01:08;98621.69;;;24.87;45.23
10587;BME280;5341;47.606;7.576;2022-08-23T02:03:36;98620.34;;;24.84;45.15
10587;BME280;5341;47.606;7.576;2022-08-23T02:06:04;98619.78;;;24.82;45.18
10587;BME280;5341;47.606;7.576;2022-08-23T02:08:32;98625.81;;;24.79;45.08
10587;BME280;5341;47.606;7.576;2022-08-23T02:11:21;98623.63;;;24.76;45.19
10587;BME280;5341;47.606;7.576;2022-08-23T02:13:52;98620.38;;;24.74;45.18
10587;BME280;5341;47.606;7.576;2022-08-23T02:16:24;98624.19;;;24.73;45.24
10587;BME280;5341;47.606;7.576;2022-08-23T02:18:53;98624.72;;;24.70;45.23
10587;BME280;5341;47.606;7.576;2022-08-23T02:21:21;98628.56;;;24.69;45.28
10587;BME280;5341;47.606;7.576;2022-08-23T02:23:49;98623.66;;;24.66;45.39
10587;BME280;5341;47.606;7.576;2022-08-23T02:26:18;98633.78;;;24.65;45.34
10587;BME280;5341;47.606;7.576;2022-08-23T02:28:50;98637.63;;;24.64;45.29
10587;BME280;5341;47.606;7.576;2022-08-23T02:31:19;98641.44;;;24.63;45.30
10587;BME280;5341;47.606;7.576;2022-08-23T02:33:46;98643.66;;;24.61;45.41
10587;BME280;5341;47.606;7.576;2022-08-23T02:36:15;98646.66;;;24.60;45.37
10587;BME280;5341;47.606;7.576;2022-08-23T02:38:43;98639.81;;;24.57;45.34
10587;BME280;5341;47.606;7.576;2022-08-23T02:41:10;98644.47;;;24.57;45.29
10587;BME280;5341;47.606;7.576;2022-08-23T02:43:39;98645.00;;;24.53;45.35
10587;BME280;5341;47.606;7.576;2022-08-23T02:46:09;98640.09;;;24.50;45.51
10587;BME280;5341;47.606;7.576;2022-08-23T02:48:37;98644.22;;;24.48;45.50
10587;BME280;5341;47.606;7.576;2022-08-23T02:51:07;98650.50;;;24.48;45.65
10587;BME280;5341;47.606;7.576;2022-08-23T02:53:35;98649.94;;;24.46;45.75
10587;BME280;5341;47.606;7.576;2022-08-23T02:56:06;98645.56;;;24.45;45.76
10587;BME280;5341;47.606;7.576;2022-08-23T02:58:33;98646.66;;;24.44;45.74
10587;BME280;5341;47.606;7.576;2022-08-23T03:01:01;98654.03;;;24.44;45.80
10587;BME280;5341;47.606;7.576;2022-08-23T03:03:30;98646.13;;;24.42;45.87
10587;BME280;5341;47.606;7.576;2022-08-23T03:05:58;98647.22;;;24.41;45.97
10587;BME280;5341;47.606;7.576;2022-08-23T03:08:26;98656.50;;;24.40;45.90
10587;BME280;5341;47.606;7.576;2022-08-23T03:10:54;98652.16;;;24.39;45.94
10587;BME280;5341;47.606;7.576;2022-08-23T03:13:22;98654.34;;;24.37;45.92
10587;BME280;5341;47.606;7.576;2022-08-23T03:15:49;98649.41;;;24.34;46.02
10587;BME280;5341;47.606;7.576;2022-08-23T03:18:17;98650.50;;;24.33;46.17
10587;BME280;5341;47.606;7.576;2022-08-23T03:20:47;98647.47;;;24.30;46.23
10587;BME280;5341;47.606;7.576;2022-08-23T03:23:14;98649.66;;;24.27;46.32
10587;BME280;5341;47.606;7.576;2022-08-23T03:25:42;98649.13;;;24.25;46.38
10587;BME280;5341;47.606;7.576;2022-08-23T03:28:20;98659.50;;;24.23;46.41
10587;BME280;5341;47.606;7.576;2022-08-23T03:30:48;98653.47;;;24.21;46.59
10587;BME280;5341;47.606;7.576;2022-08-23T03:33:15;98660.31;;;24.19;46.61
10587;BME280;5341;47.606;7.576;2022-08-23T03:35:46;98656.50;;;24.15;46.70
10587;BME280;5341;47.606;7.576;2022-08-23T03:38:14;98659.50;;;24.13;46.80
10587;BME280;5341;47.606;7.576;2022-08-23T03:40:43;98666.34;;;24.11;46.92
10587;BME280;5341;47.606;7.576;2022-08-23T03:43:10;98664.13;;;24.08;47.10
10587;BME280;5341;47.606;7.576;2022-08-23T03:45:39;98665.78;;;24.04;47.05
10587;BME280;5341;47.606;7.576;2022-08-23T03:48:08;98663.59;;;24.01;47.11
10587;BME280;5341;47.606;7.576;2022-08-23T03:50:36;98666.03;;;23.97;47.14
10587;BME280;5341;47.606;7.576;2022-08-23T03:53:05;98678.06;;;23.96;47.22
10587;BME280;5341;47.606;7.576;2022-08-23T03:55:33;98666.31;;;23.95;47.20
10587;BME280;5341;47.606;7.576;2022-08-23T03:58:01;98665.22;;;23.96;47.23
10587;BME280;5341;47.606;7.576;2022-08-23T04:00:28;98667.13;;;23.96;47.14
10587;BME280;5341;47.606;7.576;2022-08-23T04:02:56;98676.13;;;23.96;47.21
10587;BME280;5341;47.606;7.576;2022-08-23T04:05:25;98678.88;;;23.96;47.15
10587;BME280;5341;47.606;7.576;2022-08-23T04:08:08;98684.34;;;23.96;47.13
10587;BME280;5341;47.606;7.576;2022-08-23T04:10:37;98682.69;;;23.95;47.23
10587;BME280;5341;47.606;7.576;2022-08-23T04:13:05;98679.16;;;23.95;47.16
10587;BME280;5341;47.606;7.576;2022-08-23T04:15:34;98681.88;;;23.95;47.20
10587;BME280;5341;47.606;7.576;2022-08-23T04:18:02;98690.34;;;23.93;47.28
10587;BME280;5341;47.606;7.576;2022-08-23T04:20:30;98685.16;;;23.92;47.34
10587;BME280;5341;47.606;7.576;2022-08-23T04:23:03;98690.06;;;23.90;47.38
10587;BME280;5341;47.606;7.576;2022-08-23T04:25:42;98692.00;;;23.89;47.36
10587;BME280;5341;47.606;7.576;2022-08-23T04:28:10;98691.44;;;23.87;47.33
10587;BME280;5341;47.606;7.576;2022-08-23T04:30:38;98697.97;;;23.86;47.34
10587;BME280;5341;47.606;7.576;2022-08-23T04:33:06;98697.16;;;23.86;47.28
10587;BME280;5341;47.606;7.576;2022-08-23T04:35:33;98708.91;;;23.86;47.42
10587;BME280;5341;47.606;7.576;2022-08-23T04:38:01;98702.06;;;23.84;47.28
10587;BME280;5341;47.606;7.576;2022-08-23T04:40:29;98710.25;;;23.84;47.44
10587;BME280;5341;47.606;7.576;2022-08-23T04:43:21;98709.72;;;23.82;47.40
10587;BME280;5341;47.606;7.576;2022-08-23T04:45:48;98708.34;;;23.79;47.45
10587;BME280;5341;47.606;7.576;2022-08-23T04:48:26;98707.00;;;23.77;47.48
10587;BME280;5341;47.606;7.576;2022-08-23T04:50:55;98707.25;;;23.75;47.42
10587;BME280;5341;47.606;7.576;2022-08-23T04:53:23;98710.22;;;23.74;47.49
10587;BME280;5341;47.606;7.576;2022-08-23T04:56:04;98709.69;;;23.72;47.36
10587;BME280;5341;47.606;7.576;2022-08-23T04:58:36;98720.59;;;23.72;47.34
10587;BME280;5341;47.606;7.576;2022-08-23T05:01:07;98723.63;;;23.70;47.35
10587;BME280;5341;47.606;7.576;2022-08-23T05:03:36;98728.25;;;23.70;47.44
10587;BME280;5341;47.606;7.576;2022-08-23T05:06:05;98720.34;;;23.68;47.47
10587;BME280;5341;47.606;7.576;2022-08-23T05:08:38;98733.16;;;23.67;47.63
10587;BME280;5341;47.606;7.576;2022-08-23T05:11:09;98738.63;;;23.67;47.48
10587;BME280;5341;47.606;7.576;2022-08-23T05:13:40;98738.09;;;23.65;47.67
10587;BME280;5341;47.606;7.576;2022-08-23T05:16:09;98749.81;;;23.66;47.74
10587;BME280;5341;47.606;7.576;2022-08-23T05:18:42;98749.00;;;23.65;47.67
10587;BME280;5341;47.606;7.576;2022-08-23T05:21:14;98754.47;;;23.65;47.78
10587;BME280;5341;47.606;7.576;2022-08-23T05:23:43;98759.09;;;23.65;47.74
10587;BME280;5341;47.606;7.576;2022-08-23T05:26:16;98761.00;;;23.64;47.72
10587;BME280;5341;47.606;7.576;2022-08-23T05:28:46;98757.47;;;23.64;47.78
10587;BME280;5341;47.606;7.576;2022-08-23T05:31:19;98755.81;;;23.63;48.05
10587;BME280;5341;47.606;7.576;2022-08-23T05:33:57;98763.44;;;23.61;47.95
10587;BME280;5341;47.606;7.576;2022-08-23T05:36:35;98771.63;;;23.61;47.92
10587;BME280;5341;47.606;7.576;2022-08-23T05:39:02;98770.81;;;23.60;48.12
10587;BME280;5341;47.606;7.576;2022-08-23T05:41:32;98768.91;;;23.61;48.18
10587;BME280;5341;47.606;7.576;2022-08-23T05:44:01;98773.25;;;23.62;48.30
10587;BME280;5341;47.606;7.576;2022-08-23T05:46:29;98776.84;;;23.62;48.30
10587;BME280;5341;47.606;7.576;2022-08-23T05:49:24;98770.28;;;23.63;48.30
10587;BME280;5341;47.606;7.576;2022-08-23T05:51:52;98770.03;;;23.65;48.42
10587;BME280;5341;47.606;7.576;2022-08-23T05:54:25;98773.31;;;23.67;48.32
10587;BME280;5341;47.606;7.576;2022-08-23T05:57:13;98769.47;;;23.68;48.41
10587;BME280;5341;47.606;7.576;2022-08-23T05:59:42;98779.31;;;23.69;48.46
10587;BME280;5341;47.606;7.576;2022-08-23T06:02:10;98784.50;;;23.71;48.53
10587;BME280;5341;47.606;7.576;2022-08-23T06:04:38;98781.22;;;23.74;48.58
10587;BME280;5341;47.606;7.576;2022-08-23T06:07:06;98782.91;;;23.75;48.64
10587;BME280;5341;47.606;7.576;2022-08-23T06:09:36;98784.28;;;23.77;48.42
10587;BME280;5341;47.606;7.576;2022-08-23T06:12:04;98791.91;;;23.80;48.55
10587;BME280;5341;47.606;7.576;2022-08-23T06:14:32;98786.19;;;23.82;48.52
10587;BME280;5341;47.606;7.576;2022-08-23T06:17:01;98784.28;;;23.82;48.46
10587;BME280;5341;47.606;7.576;2022-08-23T06:19:29;98792.19;;;23.84;48.30
10587;BME280;5341;47.606;7.576;2022-08-23T06:22:00;98789.19;;;23.85;48.33
10587;BME280;5341;47.606;7.576;2022-08-23T06:24:35;98789.78;;;23.87;48.34
10587;BME280;5341;47.606;7.576;2022-08-23T06:27:11;98794.16;;;23.88;48.32
10587;BME280;5341;47.606;7.576;2022-08-23T06:29:41;98795.50;;;23.91;48.23
10587;BME280;5341;47.606;7.576;2022-08-23T06:32:29;98803.44;;;23.92;48.30
10587;BME280;5341;47.606;7.576;2022-08-23T06:35:20;98804.53;;;23.96;48.26
10587;BME280;5341;47.606;7.576;2022-08-23T06:38:06;98804.03;;;24.00;48.12
10587;BME280;5341;47.606;7.576;2022-08-23T06:40:44;98810.56;;;24.04;48.08
10587;BME280;5341;47.606;7.576;2022-08-23T06:43:24;98812.50;;;24.08;48.06
10587;BME280;5341;47.606;7.576;2022-08-23T06:46:15;98811.16;;;24.16;47.98
10587;BME280;5341;47.606;7.576;2022-08-23T06:48:46;98817.44;;;24.21;47.96
10587;BME280;5341;47.606;7.576;2022-08-23T06:51:17;98816.38;;;24.27;47.86
10587;BME280;5341;47.606;7.576;2022-08-23T06:54:00;98819.69;;;24.35;47.52
10587;BME280;5341;47.606;7.576;2022-08-23T06:57:04;98815.34;;;24.44;47.67
10587;BME280;5341;47.606;7.576;2022-08-23T06:59:47;98817.53;;;24.52;47.49
10587;BME280;5341;47.606;7.576;2022-08-23T07:02:44;98825.22;;;24.60;47.38
10587;BME280;5341;47.606;7.576;2022-08-23T07:05:33;98827.41;;;24.68;47.17
10587;BME280;5341;47.606;7.576;2022-08-23T07:08:21;98825.22;;;24.75;46.97
10587;BME280;5341;47.606;7.576;2022-08-23T07:10:49;98826.84;;;24.81;46.87
10587;BME280;5341;47.606;7.576;2022-08-23T07:13:16;98822.22;;;24.87;46.74
10587;BME280;5341;47.606;7.576;2022-08-23T07:15:44;98823.31;;;24.91;46.70
10587;BME280;5341;47.606;7.576;2022-08-23T07:18:12;98827.13;;;24.95;46.65
10587;BME280;5341;47.606;7.576;2022-08-23T07:20:41;98823.59;;;25.00;46.50
10587;BME280;5341;47.606;7.576;2022-08-23T07:23:11;98827.97;;;25.06;46.49
10587;BME280;5341;47.606;7.576;2022-08-23T07:25:42;98827.16;;;25.10;46.34
10587;BME280;5341;47.606;7.576;2022-08-23T07:28:13;98823.03;;;25.18;46.34
10587;BME280;5341;47.606;7.576;2022-08-23T07:30:42;98822.22;;;25.23;46.04
10587;BME280;5341;47.606;7.576;2022-08-23T07:33:10;98828.22;;;25.30;46.13
10587;BME280;5341;47.606;7.576;2022-08-23T07:35:59;98830.41;;;25.38;45.99
10587;BME280;5341;47.606;7.576;2022-08-23T07:38:27;98826.81;;;25.42;45.58
10587;BME280;5341;47.606;7.576;2022-08-23T07:40:54;98826.81;;;25.48;45.52
10587;BME280;5341;47.606;7.576;2022-08-23T07:43:23;98829.81;;;25.51;45.67
10587;BME280;5341;47.606;7.576;2022-08-23T07:45:50;98831.44;;;25.57;45.72
10587;BME280;5341;47.606;7.576;2022-08-23T07:48:18;98832.78;;;25.65;45.27
10587;BME280;5341;47.606;7.576;2022-08-23T07:51:12;98824.84;;;25.74;44.96
10587;BME280;5341;47.606;7.576;2022-08-23T07:53:41;98830.56;;;25.82;45.03
10587;BME280;5341;47.606;7.576;2022-08-23T07:56:13;98832.44;;;25.92;44.90
10587;BME280;5341;47.606;7.576;2022-08-23T07:58:54;98822.00;;;25.99;44.90
10587;BME280;5341;47.606;7.576;2022-08-23T08:01:42;98824.69;;;26.09;44.89
10587;BME280;5341;47.606;7.576;2022-08-23T08:04:11;98841.63;;;26.16;44.86
10587;BME280;5341;47.606;7.576;2022-08-23T08:06:45;98842.72;;;26.20;44.45
10587;BME280;5341;47.606;7.576;2022-08-23T08:09:16;98838.00;;;26.31;44.34
10587;BME280;5341;47.606;7.576;2022-08-23T08:11:46;98836.88;;;26.42;43.55
10587;BME280;5341;47.606;7.576;2022-08-23T08:14:19;98841.19;;;26.53;43.77
10587;BME280;5341;47.606;7.576;2022-08-23T08:16:52;98844.66;;;26.64;43.45
10587;BME280;5341;47.606;7.576;2022-08-23T08:19:44;98840.47;;;26.77;42.87
10587;BME280;5341;47.606;7.576;2022-08-23T08:22:48;98836.28;;;26.84;42.54
10587;BME280;5341;47.606;7.576;2022-08-23T08:25:22;98837.91;;;26.91;42.79
10587;BME280;5341;47.606;7.576;2022-08-23T08:27:52;98840.31;;;26.97;42.26
10587;BME280;5341;47.606;7.576;2022-08-23T08:30:19;98847.97;;;27.05;42.02
10587;BME280;5341;47.606;7.576;2022-08-23T08:32:47;98840.75;;;27.14;42.08
10587;BME280;5341;47.606;7.576;2022-08-23T08:35:15;98837.34;;;27.23;41.89
10587;BME280;5341;47.606;7.576;2022-08-23T08:37:42;98839.19;;;27.32;41.54
10587;BME280;5341;47.606;7.576;2022-08-23T08:40:12;98837.16;;;27.43;42.12
10587;BME280;5341;47.606;7.576;2022-08-23T08:42:51;98839.50;;;27.55;41.90
10587;BME280;5341;47.606;7.576;2022-08-23T08:45:23;98847.09;;;27.68;42.00
10587;BME280;5341;47.606;7.576;2022-08-23T08:47:55;98841.47;;;27.78;41.65
10587;BME280;5341;47.606;7.576;2022-08-23T08:50:32;98836.16;;;27.87;41.62
10587;BME280;5341;47.606;7.576;2022-08-23T08:53:05;98836.16;;;27.87;40.71
10587;BME280;5341;47.606;7.576;2022-08-23T08:55:57;98835.75;;;27.75;41.02
10587;BME280;5341;47.606;7.576;2022-08-23T08:58:29;98846.56;;;27.61;41.35
10587;BME280;5341;47.606;7.576;2022-08-23T09:01:00;98831.78;;;27.57;42.03
10587;BME280;5341;47.606;7.576;2022-08-23T09:03:31;98838.63;;;27.59;41.86
10587;BME280;5341;47.606;7.576;2022-08-23T09:06:04;98839.44;;;27.65;42.41
10587;BME280;5341;47.606;7.576;2022-08-23T09:08:46;98837.31;;;27.81;41.86
10587;BME280;5341;47.606;7.576;2022-08-23T09:11:28;98833.81;;;27.99;42.09
10587;BME280;5341;47.606;7.576;2022-08-23T09:14:11;98835.66;;;28.03;41.58
10587;BME280;5341;47.606;7.576;2022-08-23T09:16:50;98834.78;;;27.84;39.47
10587;BME280;5341;47.606;7.576;2022-08-23T09:19:20;98838.31;;;27.66;39.69
10587;BME280;5341;47.606;7.576;2022-08-23T09:21:55;98838.50;;;27.75;42.04
10587;BME280;5341;47.606;7.576;2022-08-23T09:24:25;98836.59;;;27.94;41.40
10587;BME280;5341;47.606;7.576;2022-08-23T09:27:02;98843.19;;;28.17;40.99
10587;BME280;5341;47.606;7.576;2022-08-23T09:29:32;98842.34;;;28.40;40.47
10587;BME280;5341;47.606;7.576;2022-08-23T09:32:02;98838.41;;;28.65;39.80
10587;BME280;5341;47.606;7.576;2022-08-23T09:34:40;98837.50;;;28.88;39.15
10587;BME280;5341;47.606;7.576;2022-08-23T09:37:15;98828.91;;;29.09;38.29
10587;BME280;5341;47.606;7.576;2022-08-23T09:39:47;98831.28;;;29.29;37.96
10587;BME280;5341;47.606;7.576;2022-08-23T09:42:30;98822.53;;;29.41;37.30
10587;BME280;5341;47.606;7.576;2022-08-23T09:44:58;98815.84;;;29.47;37.73
10587;BME280;5341;47.606;7.576;2022-08-23T09:47:32;98813.78;;;29.53;36.19
10587;BME280;5341;47.606;7.576;2022-08-23T09:50:08;98812.47;;;29.50;37.27
10587;BME280;5341;47.606;7.576;2022-08-23T09:52:38;98823.00;;;29.62;37.19
10587;BME280;5341;47.606;7.576;2022-08-23T09:55:09;98816.84;;;29.79;36.49
10587;BME280;5341;47.606;7.576;2022-08-23T09:57:45;98822.88;;;29.94;36.14
10587;BME280;5341;47.606;7.576;2022-08-23T10:00:24;98817.06;;;30.10;35.43
10587;BME280;5341;47.606;7.576;2022-08-23T10:02:53;98806.63;;;30.20;34.41
10587;BME280;5341;47.606;7.576;2022-08-23T10:05:36;98814.06;;;30.33;34.44
10587;BME280;5341;47.606;7.576;2022-08-23T10:08:06;98813.44;;;30.37;33.09
10587;BME280;5341;47.606;7.576;2022-08-23T10:10:39;98813.28;;;30.19;34.27
10587;BME280;5341;47.606;7.576;2022-08-23T10:13:15;98811.84;;;30.22;34.62
10587;BME280;5341;47.606;7.576;2022-08-23T10:15:51;98801.63;;;30.22;33.21
10587;BME280;5341;47.606;7.576;2022-08-23T10:18:31;98804.38;;;30.22;34.31
10587;BME280;5341;47.606;7.576;2022-08-23T10:21:06;98798.44;;;30.15;33.38
10587;BME280;5341;47.606;7.576;2022-08-23T10:23:44;98799.53;;;30.28;33.28
10587;BME280;5341;47.606;7.576;2022-08-23T10:26:21;98799.41;;;30.47;32.70
10587;BME280;5341;47.606;7.576;2022-08-23T10:28:59;98795.16;;;30.63;32.77
10587;BME280;5341;47.606;7.576;2022-08-23T10:31:52;98794.84;;;30.65;32.29
10587;BME280;5341;47.606;7.576;2022-08-23T10:34:43;98795.38;;;30.67;32.95
10587;BME280;5341;47.606;7.576;2022-08-23T10:37:27;98791.91;;;30.83;32.88
10587;BME280;5341;47.606;7.576;2022-08-23T10:40:08;98785.75;;;30.86;31.15
10587;BME280;5341;47.606;7.576;2022-08-23T10:42:42;98786.44;;;30.92;32.49
10587;BME280;5341;47.606;7.576;2022-08-23T10:45:20;98780.66;;;31.02;32.74
10587;BME280;5341;47.606;7.576;2022-08-23T10:48:06;98790.63;;;31.12;31.79
10587;BME280;5341;47.606;7.576;2022-08-23T10:50:43;98781.75;;;31.24;31.30
10587;BME280;5341;47.606;7.576;2022-08-23T10:53:12;98788.66;;;31.35;30.82
10587;BME280;5341;47.606;7.576;2022-08-23T10:55:46;98783.13;;;31.35;30.11
10587;BME280;5341;47.606;7.576;2022-08-23T10:58:35;98781.84;;;31.41;30.91
10587;BME280;5341;47.606;7.576;2022-08-23T11:01:08;98780.94;;;31.54;30.56
10587;BME280;5341;47.606;7.576;2022-08-23T11:03:42;98777.41;;;31.71;30.83
10587;BME280;5341;47.606;7.576;2022-08-23T11:06:43;98778.78;;;31.91;29.97
10587;BME280;5341;47.606;7.576;2022-08-23T11:12:24;98768.75;;;32.12;28.75
10587;BME280;5341;47.606;7.576;2022-08-23T11:15:12;98770.19;;;32.18;28.54
10587;BME280;5341;47.606;7.576;2022-08-23T11:18:01;98765.50;;;32.27;29.00
10587;BME280;5341;47.606;7.576;2022-08-23T11:20:55;98772.22;;;32.35;29.62
10587;BME280;5341;47.606;7.576;2022-08-23T11:23:38;98763.41;;;32.42;29.06
10587;BME280;5341;47.606;7.576;2022-08-23T11:26:09;98762.09;;;32.48;28.97
10587;BME280;5341;47.606;7.576;2022-08-23T11:28:44;98760.47;;;32.55;28.81
10587;BME280;5341;47.606;7.576;2022-08-23T11:31:20;98760.31;;;32.60;28.66
10587;BME280;5341;47.606;7.576;2022-08-23T11:33:58;98763.38;;;32.68;29.05
10587;BME280;5341;47.606;7.576;2022-08-23T11:36:29;98757.16;;;32.71;28.84
10587;BME280;5341;47.606;7.576;2022-08-23T11:39:09;98758.31;;;32.78;28.35
10587;BME280;5341;47.606;7.576;2022-08-23T11:42:00;98751.16;;;32.86;27.35
10587;BME280;5341;47.606;7.576;2022-08-23T11:44:36;98755.53;;;32.78;28.44
10587;BME280;5341;47.606;7.576;2022-08-23T11:47:10;98752.78;;;32.78;28.09
10587;BME280;5341;47.606;7.576;2022-08-23T11:53:07;98751.28;;;32.81;28.16
10587;BME280;5341;47.606;7.576;2022-08-23T11:56:10;98744.34;;;32.83;28.03
10587;BME280;5341;47.606;7.576;2022-08-23T12:01:45;98743.31;;;32.97;27.83
10587;BME280;5341;47.606;7.576;2022-08-23T12:04:29;98741.81;;;33.08;28.12
10587;BME280;5341;47.606;7.576;2022-08-23T12:06:58;98740.63;;;33.17;27.71
10587;BME280;5341;47.606;7.576;2022-08-23T12:09:52;98734.84;;;33.31;28.42
10587;BME280;5341;47.606;7.576;2022-08-23T12:12:28;98747.56;;;33.41;27.91
10587;BME280;5341;47.606;7.576;2022-08-23T12:14:58;98741.84;;;33.46;27.76
10587;BME280;5341;47.606;7.576;2022-08-23T12:20:33;98739.22;;;33.49;26.82
10587;BME280;5341;47.606;7.576;2022-08-23T12:23:07;98736.09;;;33.51;26.05
10587;BME280;5341;47.606;7.576;2022-08-23T12:25:40;98741.66;;;33.51;25.90
10587;BME280;5341;47.606;7.576;2022-08-23T12:28:32;98740.00;;;33.59;25.91
10587;BME280;5341;47.606;7.576;2022-08-23T12:31:19;98736.88;;;33.60;25.79
10587;BME280;5341;47.606;7.576;2022-08-23T12:34:06;98734.09;;;33.60;25.51
10587;BME280;5341;47.606;7.576;2022-08-23T12:36:44;98724.25;;;33.42;24.24
10587;BME280;5341;47.606;7.576;2022-08-23T12:39:24;98725.06;;;32.96;25.34
10587;BME280;5341;47.606;7.576;2022-08-23T12:42:03;98725.06;;;32.78;25.95
10587;BME280;5341;47.606;7.576;2022-08-23T12:44:31;98724.75;;;32.88;27.06
10587;BME280;5341;47.606;7.576;2022-08-23T12:47:09;98728.59;;;33.05;26.42
10587;BME280;5341;47.606;7.576;2022-08-23T12:49:38;98734.56;;;33.24;26.40
10587;BME280;5341;47.606;7.576;2022-08-23T12:52:07;98729.97;;;33.37;25.91
10587;BME280;5341;47.606;7.576;2022-08-23T12:54:38;98729.75;;;33.50;25.80
10587;BME280;5341;47.606;7.576;2022-08-23T12:57:16;98718.88;;;33.66;26.42
10587;BME280;5341;47.606;7.576;2022-08-23T12:59:48;98728.09;;;33.79;25.89
10587;BME280;5341;47.606;7.576;2022-08-23T13:02:23;98731.03;;;33.83;26.29
10587;BME280;5341;47.606;7.576;2022-08-23T13:04:54;98724.81;;;33.86;25.89
10587;BME280;5341;47.606;7.576;2022-08-23T13:07:24;98733.13;;;33.86;24.72
10587;BME280;5341;47.606;7.576;2022-08-23T13:09:52;98721.75;;;33.78;25.04
10587;BME280;5341;47.606;7.576;2022-08-23T13:12:23;98721.91;;;33.82;25.52
10587;BME280;5341;47.606;7.576;2022-08-23T13:14:53;98720.56;;;33.88;25.27
10587;BME280;5341;47.606;7.576;2022-08-23T13:17:31;98713.13;;;34.01;26.80
10587;BME280;5341;47.606;7.576;2022-08-23T13:20:20;98720.31;;;34.23;25.38
10587;BME280;5341;47.606;7.576;2022-08-23T13:22:57;98711.22;;;34.14;24.53
10587;BME280;5341;47.606;7.576;2022-08-23T13:25:28;98711.44;;;33.88;24.41
10587;BME280;5341;47.606;7.576;2022-08-23T13:28:00;98709.53;;;34.00;26.26
10587;BME280;5341;47.606;7.576;2022-08-23T13:30:31;98713.34;;;34.17;24.93
10587;BME280;5341;47.606;7.576;2022-08-23T13:33:21;98723.31;;;34.18;24.22
10587;BME280;5341;47.606;7.576;2022-08-23T13:35:52;98712.03;;;34.14;23.50
10587;BME280;5341;47.606;7.576;2022-08-23T13:38:32;98716.31;;;34.12;24.07
10587;BME280;5341;47.606;7.576;2022-08-23T13:41:02;98708.00;;;34.12;24.04
10587;BME280;5341;47.606;7.576;2022-08-23T13:43:36;98708.28;;;34.19;23.60
10587;BME280;5341;47.606;7.576;2022-08-23T13:46:14;98712.66;;;34.20;23.51
10587;BME280;5341;47.606;7.576;2022-08-23T13:48:46;98714.06;;;34.26;23.33
10587;BME280;5341;47.606;7.576;2022-08-23T13:51:17;98707.53;;;34.30;23.69
10587;BME280;5341;47.606;7.576;2022-08-23T13:53:46;98705.56;;;34.31;23.74
10587;BME280;5341;47.606;7.576;2022-08-23T13:56:14;98706.81;;;34.33;23.77
10587;BME280;5341;47.606;7.576;2022-08-23T13:58:52;98704.66;;;34.39;24.09